createdAt,value
2023-04-09T00:01:23.520Z,22.52
2023-04-09T00:03:51.493Z,21.63
2023-04-09T00:06:19.488Z,21.55
2023-04-09T00:08:47.468Z,21.20
2023-04-09T00:11:15.314Z,21.33
2023-04-09T00:13:43.170Z,22.13
2023-04-09T00:16:12.494Z,21.30
2023-04-09T00:18:40.540Z,21.60
2023-04-09T00:21:08.905Z,21.50
2023-04-09T00:23:37.020Z,20.92
2023-04-09T00:26:05.002Z,21.35
2023-04-09T00:28:32.834Z,19.80
2023-04-09T00:31:00.746Z,19.95
2023-04-09T00:33:29.979Z,19.45
2023-04-09T00:35:57.960Z,20.08
2023-04-09T00:38:25.980Z,20.65
2023-04-09T00:40:53.889Z,20.27
2023-04-09T00:43:22.226Z,20.42
2023-04-09T00:45:50.388Z,19.08
2023-04-09T00:48:18.987Z,18.83
2023-04-09T00:50:48.389Z,19.17
2023-04-09T00:53:17.341Z,20.13
2023-04-09T00:55:45.853Z,18.98
2023-04-09T00:58:14.513Z,18.90
2023-04-09T01:00:42.393Z,19.60
2023-04-09T01:03:10.520Z,19.13
2023-04-09T01:05:45.181Z,19.92
2023-04-09T01:08:26.100Z,19.00
2023-04-09T01:11:03.681Z,19.23
2023-04-09T01:13:43.564Z,19.55
2023-04-09T01:16:13.877Z,19.17
2023-04-09T01:18:49.846Z,19.55
2023-04-09T01:21:21.812Z,20.23
2023-04-09T01:23:59.273Z,19.75
2023-04-09T01:29:09.866Z,18.98
2023-04-09T01:31:40.064Z,18.73
2023-04-09T01:34:10.115Z,19.00
2023-04-09T01:36:40.977Z,18.40
2023-04-09T01:39:09.006Z,17.98
2023-04-09T01:41:38.353Z,18.42
2023-04-09T01:44:08.893Z,18.73
2023-04-09T01:46:38.812Z,18.55
2023-04-09T01:49:07.642Z,18.42
2023-04-09T01:51:36.039Z,18.77
2023-04-09T01:54:04.929Z,19.13
2023-04-09T01:56:41.595Z,19.40
2023-04-09T01:59:11.410Z,18.92
2023-04-09T02:01:45.216Z,18.95
2023-04-09T02:04:21.172Z,18.60
2023-04-09T02:06:57.163Z,18.42
2023-04-09T02:09:26.380Z,18.05
2023-04-09T02:11:54.901Z,18.52
2023-04-09T02:14:27.107Z,16.98
2023-04-09T02:16:55.121Z,18.50
2023-04-09T02:19:24.088Z,18.83
2023-04-09T02:21:51.953Z,17.35
2023-04-09T02:24:19.902Z,18.40
2023-04-09T02:26:48.386Z,17.92
2023-04-09T02:29:16.237Z,17.52
2023-04-09T02:31:45.479Z,18.13
2023-04-09T02:34:13.488Z,17.77
2023-04-09T02:36:41.734Z,18.25
2023-04-09T02:39:09.793Z,17.77
2023-04-09T02:41:37.627Z,17.10
2023-04-09T02:44:05.676Z,17.15
2023-04-09T02:46:33.625Z,17.45
2023-04-09T02:49:02.903Z,17.05
2023-04-09T02:51:30.892Z,17.45
2023-04-09T02:53:58.819Z,17.35
2023-04-09T02:56:26.685Z,16.33
2023-04-09T02:58:55.323Z,16.70
2023-04-09T03:01:23.321Z,16.15
2023-04-09T03:03:51.517Z,16.73
2023-04-09T03:06:20.903Z,17.45
2023-04-09T03:08:49.142Z,17.33
2023-04-09T03:11:17.251Z,16.65
2023-04-09T03:13:45.265Z,16.98
2023-04-09T03:16:13.181Z,16.50
2023-04-09T03:18:41.163Z,15.75
2023-04-09T03:21:10.328Z,16.25
2023-04-09T03:23:47.319Z,16.58
2023-04-09T03:26:15.418Z,15.18
2023-04-09T03:28:49.181Z,15.75
2023-04-09T03:31:18.065Z,16.48
2023-04-09T03:33:47.364Z,16.63
2023-04-09T03:36:15.453Z,15.60
2023-04-09T03:39:05.334Z,15.32
2023-04-09T03:41:36.982Z,15.88
2023-04-09T03:44:08.231Z,14.48
2023-04-09T03:46:46.290Z,14.00
2023-04-09T03:49:17.789Z,14.43
2023-04-09T03:51:46.398Z,13.75
2023-04-09T03:54:15.985Z,14.40
2023-04-09T03:56:45.559Z,13.85
2023-04-09T03:59:15.966Z,12.50
2023-04-09T04:01:48.023Z,11.82
2023-04-09T04:04:16.721Z,12.60
2023-04-09T04:06:52.464Z,12.00
2023-04-09T04:09:29.132Z,11.98
2023-04-09T04:12:02.411Z,12.20
2023-04-09T04:14:46.986Z,11.68
2023-04-09T04:17:25.077Z,11.23
2023-04-09T04:19:54.628Z,11.68
2023-04-09T04:22:26.056Z,11.80
2023-04-09T04:24:58.291Z,11.95
2023-04-09T04:27:26.657Z,12.10
2023-04-09T04:29:54.904Z,13.88
2023-04-09T04:32:38.100Z,12.93
2023-04-09T04:35:10.614Z,13.05
2023-04-09T04:37:40.474Z,13.52
2023-04-09T04:40:11.141Z,12.98
2023-04-09T04:42:42.868Z,13.07
2023-04-09T04:45:15.348Z,13.50
2023-04-09T04:47:51.116Z,13.60
2023-04-09T04:50:19.098Z,13.38
2023-04-09T04:53:03.491Z,15.45
2023-04-09T04:55:39.468Z,13.77
2023-04-09T04:58:09.093Z,14.48
2023-04-09T05:00:45.988Z,14.35
2023-04-09T05:03:15.069Z,14.32
2023-04-09T05:06:09.061Z,12.82
2023-04-09T05:08:43.140Z,13.65
2023-04-09T05:11:15.108Z,13.95
2023-04-09T05:13:44.373Z,13.00
2023-04-09T05:16:18.454Z,13.73
2023-04-09T05:18:50.920Z,13.02
2023-04-09T05:21:19.086Z,12.88
2023-04-09T05:23:47.968Z,12.77
2023-04-09T05:26:17.874Z,11.55
2023-04-09T05:28:55.867Z,11.93
2023-04-09T05:31:24.968Z,11.10
2023-04-09T05:34:15.525Z,11.55
2023-04-09T05:36:47.712Z,11.43
2023-04-09T05:39:16.240Z,10.98
2023-04-09T05:41:47.294Z,10.80
2023-04-09T05:44:27.574Z,10.90
2023-04-09T05:47:17.602Z,10.50
2023-04-09T05:50:06.899Z,10.02
2023-04-09T05:52:35.462Z,10.18
2023-04-09T05:55:05.464Z,9.25
2023-04-09T05:57:54.571Z,9.18
2023-04-09T06:00:22.816Z,9.23
2023-04-09T06:02:51.378Z,10.18
2023-04-09T06:05:19.463Z,9.40
2023-04-09T06:07:48.823Z,9.38
2023-04-09T06:10:16.645Z,9.13
2023-04-09T06:12:44.968Z,9.52
2023-04-09T06:15:14.206Z,9.65
2023-04-09T06:17:42.064Z,9.38
2023-04-09T06:20:11.122Z,9.35
2023-04-09T06:22:39.001Z,10.00
2023-04-09T06:25:07.876Z,10.05
2023-04-09T06:27:35.750Z,9.50
2023-04-09T06:30:03.675Z,9.55
2023-04-09T06:32:37.731Z,9.57
2023-04-09T06:35:11.571Z,9.40
2023-04-09T06:37:39.485Z,8.70
2023-04-09T06:40:08.629Z,9.02
2023-04-09T06:42:36.475Z,8.65
2023-04-09T06:45:23.882Z,8.48
2023-04-09T06:47:53.264Z,8.90
2023-04-09T06:50:21.183Z,8.20
2023-04-09T06:52:49.180Z,7.28
2023-04-09T06:55:17.028Z,8.48
2023-04-09T06:57:44.976Z,9.43
2023-04-09T07:00:13.833Z,9.02
2023-04-09T07:02:42.263Z,9.10
2023-04-09T07:05:11.913Z,8.18
2023-04-09T07:07:39.748Z,8.80
2023-04-09T07:10:08.850Z,9.23
2023-04-09T07:12:36.711Z,8.73
2023-04-09T07:15:06.492Z,8.13
2023-04-09T07:17:34.957Z,8.93
2023-04-09T07:20:03.243Z,8.70
2023-04-09T07:22:32.533Z,8.40
2023-04-09T07:25:00.621Z,8.80
2023-04-09T07:27:29.685Z,8.23
2023-04-09T07:29:58.458Z,8.18
2023-04-09T07:32:28.180Z,8.23
2023-04-09T07:34:57.245Z,8.32
2023-04-09T07:37:25.338Z,8.23
2023-04-09T07:39:54.912Z,8.52
2023-04-09T07:42:22.979Z,8.02
2023-04-09T07:44:50.886Z,7.20
2023-04-09T07:47:18.770Z,7.85
2023-04-09T07:49:47.131Z,7.95
2023-04-09T07:52:15.103Z,8.27
2023-04-09T07:54:42.926Z,7.93
2023-04-09T07:57:12.153Z,8.10
2023-04-09T07:59:40.020Z,7.45
2023-04-09T08:02:08.569Z,7.90
2023-04-09T08:04:36.539Z,8.43
2023-04-09T08:07:04.740Z,8.05
2023-04-09T08:09:32.855Z,7.70
2023-04-09T08:12:01.094Z,7.68
2023-04-09T08:14:30.419Z,7.70
2023-04-09T08:16:58.390Z,7.50
2023-04-09T08:19:26.480Z,7.68
2023-04-09T08:21:54.354Z,7.22
2023-04-09T08:24:22.483Z,6.85
2023-04-09T08:26:50.398Z,7.60
2023-04-09T08:29:18.322Z,7.43
2023-04-09T08:31:47.563Z,6.55
2023-04-09T08:34:17.401Z,6.78
2023-04-09T08:36:47.586Z,6.68
2023-04-09T08:39:16.984Z,5.97
2023-04-09T08:41:45.072Z,5.38
2023-04-09T08:44:13.316Z,5.80
2023-04-09T08:46:41.193Z,6.32
2023-04-09T08:49:11.543Z,5.45
2023-04-09T08:51:40.433Z,4.30
2023-04-09T08:54:08.553Z,4.55
2023-04-09T08:56:36.840Z,5.07
2023-04-09T08:59:05.427Z,5.45
2023-04-09T09:01:33.568Z,5.47
2023-04-09T09:04:04.449Z,5.32
2023-04-09T09:06:35.655Z,5.32
2023-04-09T09:09:06.050Z,4.72
2023-04-09T09:11:34.825Z,4.82
2023-04-09T09:14:03.759Z,5.13
2023-04-09T09:16:33.223Z,4.88
2023-04-09T09:19:01.877Z,5.75
2023-04-09T09:21:31.071Z,5.43
2023-04-09T09:24:00.790Z,5.80
2023-04-09T09:26:30.068Z,5.93
2023-04-09T09:28:59.405Z,5.63
2023-04-09T09:31:27.689Z,5.05
2023-04-09T09:33:56.378Z,5.43
2023-04-09T09:36:35.727Z,5.35
2023-04-09T09:39:09.864Z,5.82
2023-04-09T09:41:38.154Z,6.30
2023-04-09T09:44:07.199Z,6.55
2023-04-09T09:46:37.290Z,6.43
2023-04-09T09:49:05.861Z,6.00
2023-04-09T09:51:36.931Z,6.22
2023-04-09T09:54:08.753Z,6.60
2023-04-09T09:56:38.976Z,7.38
2023-04-09T09:59:16.866Z,7.10
2023-04-09T10:01:45.403Z,7.00
2023-04-09T10:04:16.307Z,6.65
2023-04-09T10:06:46.055Z,7.60
2023-04-09T10:09:16.565Z,6.85
2023-04-09T10:11:47.953Z,6.70
2023-04-09T10:14:17.559Z,6.22
2023-04-09T10:16:45.520Z,5.68
2023-04-09T10:19:15.064Z,6.20
2023-04-09T10:21:48.990Z,6.53
2023-04-09T10:24:18.684Z,6.28
2023-04-09T10:26:46.970Z,6.40
2023-04-09T10:29:17.005Z,6.78
2023-04-09T10:31:56.097Z,6.20
2023-04-09T10:34:28.017Z,5.28
2023-04-09T10:36:58.426Z,5.43
2023-04-09T10:39:29.954Z,6.22
2023-04-09T10:41:59.167Z,5.93
2023-04-09T10:44:28.613Z,6.18
2023-04-09T10:46:57.270Z,6.35
2023-04-09T10:49:26.639Z,5.65
2023-04-09T10:51:55.629Z,5.97
2023-04-09T10:54:47.032Z,6.35
2023-04-09T10:57:17.943Z,5.95
2023-04-09T10:59:47.804Z,5.45
2023-04-09T11:03:01.628Z,5.15
2023-04-09T11:08:06.069Z,5.80
2023-04-09T11:10:35.369Z,5.63
2023-04-09T11:13:03.666Z,5.80
2023-04-09T11:15:33.165Z,5.90
2023-04-09T11:18:02.903Z,5.53
2023-04-09T11:20:31.514Z,5.57
2023-04-09T11:23:01.034Z,5.28
2023-04-09T11:25:29.949Z,5.28
2023-04-09T11:27:59.698Z,5.07
2023-04-09T11:30:28.000Z,5.82
2023-04-09T11:32:56.316Z,5.35
2023-04-09T11:35:25.120Z,5.03
2023-04-09T11:37:53.209Z,5.30
2023-04-09T11:40:22.863Z,5.22
2023-04-09T11:42:52.195Z,5.55
2023-04-09T11:45:23.340Z,5.00
2023-04-09T11:47:51.593Z,5.20
2023-04-09T11:50:20.759Z,4.97
2023-04-09T11:52:49.779Z,4.75
2023-04-09T11:55:25.000Z,5.18
2023-04-09T11:57:55.501Z,4.72
2023-04-09T12:00:25.106Z,4.63
2023-04-09T12:03:01.154Z,4.38
2023-04-09T12:05:31.156Z,5.25
2023-04-09T12:08:01.024Z,4.70
2023-04-09T12:10:30.058Z,5.20
2023-04-09T12:13:04.337Z,5.10
2023-04-09T12:15:38.309Z,4.43
2023-04-09T12:18:10.348Z,5.00
2023-04-09T12:20:40.684Z,5.05
2023-04-09T12:23:09.881Z,5.20
2023-04-09T12:25:39.550Z,5.00
2023-04-09T12:28:09.239Z,4.88
2023-04-09T12:30:38.508Z,4.78
2023-04-09T12:33:08.232Z,4.35
2023-04-09T12:35:37.915Z,5.30
2023-04-09T12:38:06.088Z,4.78
2023-04-09T12:40:34.175Z,4.68
2023-04-09T12:43:02.478Z,4.60
2023-04-09T12:45:31.347Z,4.88
2023-04-09T12:48:00.714Z,4.75
2023-04-09T12:50:28.742Z,4.95
2023-04-09T12:52:56.581Z,4.38
2023-04-09T12:55:24.421Z,4.40
2023-04-09T12:57:52.336Z,4.53
2023-04-09T13:00:20.148Z,4.22
2023-04-09T13:02:48.104Z,4.40
2023-04-09T13:05:17.570Z,4.72
2023-04-09T13:07:45.656Z,4.75
2023-04-09T13:10:13.526Z,5.20
2023-04-09T13:12:41.687Z,4.57
2023-04-09T13:15:09.933Z,4.47
2023-04-09T13:17:37.858Z,4.93
2023-04-09T13:20:06.936Z,4.25
2023-04-09T13:22:36.182Z,4.65
2023-04-09T13:25:05.080Z,4.68
2023-04-09T13:27:32.994Z,3.95
2023-04-09T13:30:00.967Z,4.50
2023-04-09T13:32:28.783Z,4.68
2023-04-09T13:34:58.029Z,4.90
2023-04-09T13:37:25.994Z,4.18
2023-04-09T13:39:55.229Z,4.63
2023-04-09T13:42:23.053Z,4.35
2023-04-09T13:44:50.954Z,4.45
2023-04-09T13:47:18.810Z,4.43
2023-04-09T13:49:46.799Z,4.47
2023-04-09T13:52:15.420Z,3.80
2023-04-09T13:54:43.212Z,4.65
2023-04-09T13:57:12.553Z,4.70
2023-04-09T13:59:42.331Z,4.47
2023-04-09T14:02:10.437Z,4.72
2023-04-09T14:04:38.484Z,4.53
2023-04-09T14:07:06.337Z,4.88
2023-04-09T14:09:34.174Z,4.10
2023-04-09T14:12:02.598Z,4.50
2023-04-09T14:14:31.766Z,4.78
2023-04-09T14:16:59.694Z,4.50
2023-04-09T14:19:27.638Z,4.10
2023-04-09T14:21:55.988Z,4.07
2023-04-09T14:24:23.940Z,4.55
2023-04-09T14:26:53.577Z,4.50
2023-04-09T14:29:22.194Z,4.90
2023-04-09T14:31:52.018Z,4.50
2023-04-09T14:34:19.906Z,5.20
2023-04-09T14:36:47.760Z,8.27
2023-04-09T14:39:15.679Z,5.05
2023-04-09T14:41:43.560Z,5.60
2023-04-09T14:44:11.494Z,4.93
2023-04-09T14:46:39.465Z,4.82
2023-04-09T14:49:08.700Z,4.93
2023-04-09T14:51:37.293Z,5.30
2023-04-09T14:54:05.286Z,4.18
2023-04-09T14:56:33.272Z,4.38
2023-04-09T14:59:01.115Z,3.80
2023-04-09T15:01:29.681Z,5.60
2023-04-09T15:03:58.402Z,4.72
2023-04-09T15:06:27.965Z,4.20
2023-04-09T15:08:55.949Z,3.65
2023-04-09T15:11:23.823Z,5.13
2023-04-09T15:13:52.649Z,3.55
2023-04-09T15:16:25.875Z,4.22
2023-04-09T15:18:56.227Z,3.92
2023-04-09T15:21:24.657Z,4.20
2023-04-09T15:23:54.333Z,3.72
2023-04-09T15:26:22.117Z,4.70
2023-04-09T15:28:50.188Z,3.72
2023-04-09T15:31:18.207Z,4.28
2023-04-09T15:33:47.046Z,4.15
2023-04-09T15:36:15.089Z,4.35
2023-04-09T15:38:42.992Z,5.00
2023-04-09T15:41:12.147Z,4.20
2023-04-09T15:43:40.097Z,3.97
2023-04-09T15:46:12.025Z,3.40
2023-04-09T15:48:39.969Z,4.07
2023-04-09T15:51:08.045Z,4.30
2023-04-09T15:53:35.963Z,4.18
2023-04-09T15:56:04.098Z,3.75
2023-04-09T15:58:33.685Z,3.70
2023-04-09T16:01:01.857Z,3.28
2023-04-09T16:03:31.753Z,3.22
2023-04-09T16:06:01.654Z,3.10
2023-04-09T16:08:29.633Z,3.60
2023-04-09T16:10:57.541Z,3.35
2023-04-09T16:13:25.430Z,3.50
2023-04-09T16:15:54.625Z,3.90
2023-04-09T16:18:22.671Z,3.80
2023-04-09T16:20:53.572Z,4.03
2023-04-09T16:23:22.110Z,4.15
2023-04-09T16:25:50.251Z,3.30
2023-04-09T16:28:19.408Z,3.80
2023-04-09T16:30:47.274Z,4.20
2023-04-09T16:33:16.633Z,4.00
2023-04-09T16:35:44.530Z,4.05
2023-04-09T16:38:13.564Z,3.67
2023-04-09T16:40:41.583Z,4.05
2023-04-09T16:43:09.514Z,3.67
2023-04-09T16:45:37.440Z,4.00
2023-04-09T16:48:06.363Z,3.75
2023-04-09T16:50:36.382Z,3.63
2023-04-09T16:53:04.419Z,3.92
2023-04-09T16:55:32.478Z,3.90
2023-04-09T16:58:00.428Z,3.88
2023-04-09T17:00:28.642Z,3.95
2023-04-09T17:02:57.926Z,4.00
2023-04-09T17:05:26.214Z,3.67
2023-04-09T17:07:55.475Z,3.60
2023-04-09T17:10:23.368Z,3.20
2023-04-09T17:12:51.269Z,3.58
2023-04-09T17:15:19.141Z,3.33
2023-04-09T17:17:49.530Z,3.53
2023-04-09T17:20:18.017Z,3.45
2023-04-09T17:22:46.303Z,3.72
2023-04-09T17:25:15.662Z,3.70
2023-04-09T17:27:45.278Z,3.70
2023-04-09T17:30:13.756Z,3.95
2023-04-09T17:32:43.753Z,3.85
2023-04-09T17:35:11.690Z,3.53
2023-04-09T17:37:39.616Z,3.72
2023-04-09T17:40:08.744Z,3.60
2023-04-09T17:42:38.284Z,3.67
2023-04-09T17:45:07.379Z,3.53
2023-04-09T17:47:35.267Z,4.15
2023-04-09T17:50:04.287Z,3.55
2023-04-09T17:52:36.687Z,3.80
2023-04-09T17:55:07.056Z,3.60
2023-04-09T17:57:35.560Z,3.70
2023-04-09T18:00:05.553Z,3.65
2023-04-09T18:02:34.694Z,3.63
2023-04-09T18:05:04.458Z,3.67
2023-04-09T18:07:34.208Z,4.10
2023-04-09T18:10:02.766Z,4.07
2023-04-09T18:12:31.143Z,3.70
2023-04-09T18:14:59.059Z,4.07
2023-04-09T18:17:28.406Z,3.92
2023-04-09T18:19:58.160Z,4.10
2023-04-09T18:22:26.883Z,4.30
2023-04-09T18:24:54.862Z,4.60
2023-04-09T18:27:22.734Z,4.85
2023-04-09T18:29:50.542Z,4.70
2023-04-09T18:32:19.724Z,4.97
2023-04-09T18:34:49.297Z,5.00
2023-04-09T18:37:17.233Z,4.30
2023-04-09T18:39:45.163Z,4.85
2023-04-09T18:42:13.063Z,5.90
2023-04-09T18:44:41.379Z,6.68
2023-04-09T18:47:10.231Z,7.38
2023-04-09T18:49:38.309Z,6.22
2023-04-09T18:52:09.193Z,4.97
2023-04-09T18:54:38.518Z,4.85
2023-04-09T18:57:06.433Z,5.53
2023-04-09T18:59:35.198Z,6.38
2023-04-09T19:02:04.763Z,6.80
2023-04-09T19:04:36.195Z,6.35
2023-04-09T19:07:04.516Z,6.80
2023-04-09T19:09:34.476Z,7.85
2023-04-09T19:12:02.664Z,9.55
2023-04-09T19:14:30.623Z,8.23
2023-04-09T19:16:58.955Z,7.70
2023-04-09T19:19:28.193Z,9.70
2023-04-09T19:21:55.984Z,9.77
2023-04-09T19:24:24.982Z,6.50
2023-04-09T19:26:54.292Z,6.38
2023-04-09T19:29:22.173Z,8.00
2023-04-09T19:31:50.185Z,9.15
2023-04-09T19:34:18.161Z,10.32
2023-04-09T19:36:46.197Z,9.52
2023-04-09T19:39:15.478Z,8.18
2023-04-09T19:41:43.452Z,10.57
2023-04-09T19:44:12.872Z,8.02
2023-04-09T19:46:41.000Z,8.55
2023-04-09T19:49:09.010Z,10.27
2023-04-09T19:51:37.043Z,9.52
2023-04-09T19:54:05.196Z,10.05
2023-04-09T19:56:33.066Z,8.82
2023-04-09T19:59:01.030Z,8.98
2023-04-09T20:01:30.358Z,7.97
2023-04-09T20:03:58.544Z,9.00
2023-04-09T20:06:27.082Z,10.20
2023-04-09T20:08:55.887Z,10.43
2023-04-09T20:11:23.888Z,8.85
2023-04-09T20:13:52.010Z,8.20
2023-04-09T20:16:20.277Z,7.95
2023-04-09T20:18:49.574Z,9.52
2023-04-09T20:21:17.542Z,9.20
2023-04-09T20:23:46.207Z,7.85
2023-04-09T20:26:14.429Z,8.10
2023-04-09T20:28:42.768Z,7.22
2023-04-09T20:31:10.639Z,6.55
2023-04-09T20:33:38.736Z,7.15
2023-04-09T20:36:16.698Z,7.05
2023-04-09T20:38:44.799Z,6.45
2023-04-09T20:41:12.717Z,6.82
2023-04-09T20:43:40.552Z,6.43
2023-04-09T20:46:08.464Z,6.40
2023-04-09T20:48:36.490Z,6.63
2023-04-09T20:51:09.195Z,6.93
2023-04-09T20:53:38.751Z,6.70
2023-04-09T20:56:07.304Z,6.68
2023-04-09T20:58:35.172Z,6.63
2023-04-09T21:01:05.273Z,6.57
2023-04-09T21:03:34.566Z,6.18
2023-04-09T21:06:03.408Z,6.82
2023-04-09T21:08:31.539Z,7.60
2023-04-09T21:11:00.770Z,6.50
2023-04-09T21:13:29.031Z,6.78
2023-04-09T21:15:58.178Z,7.00
2023-04-09T21:18:26.351Z,6.93
2023-04-09T21:20:54.292Z,7.43
2023-04-09T21:23:22.360Z,7.25
2023-04-09T21:25:50.398Z,7.05
2023-04-09T21:28:19.670Z,7.18
2023-04-09T21:30:47.718Z,7.32
2023-04-09T21:33:16.044Z,7.07
2023-04-09T21:35:44.037Z,7.05
2023-04-09T21:38:12.773Z,7.10
2023-04-09T21:40:40.840Z,7.93
2023-04-09T21:43:09.364Z,6.93
2023-04-09T21:45:39.308Z,6.95
2023-04-09T21:48:09.173Z,7.50
2023-04-09T21:50:37.180Z,6.72
2023-04-09T21:53:05.195Z,7.22
2023-04-09T21:55:33.133Z,7.20
2023-04-09T21:58:01.043Z,7.22
2023-04-09T22:00:29.583Z,7.28
2023-04-09T22:03:01.492Z,7.38
2023-04-09T22:05:29.615Z,6.75
2023-04-09T22:07:57.643Z,7.53
2023-04-09T22:10:25.523Z,7.32
2023-04-09T22:12:53.288Z,7.57
2023-04-09T22:15:21.432Z,7.50
2023-04-09T22:17:49.597Z,7.75
2023-04-09T22:20:19.045Z,8.15
2023-04-09T22:22:48.230Z,7.80
2023-04-09T22:25:16.422Z,7.85
2023-04-09T22:27:44.509Z,7.65
2023-04-09T22:30:12.729Z,8.23
2023-04-09T22:32:40.621Z,7.78
2023-04-09T22:35:09.303Z,8.68
2023-04-09T22:37:39.588Z,8.30
2023-04-09T22:40:14.206Z,8.18
2023-04-09T22:42:43.005Z,7.88
2023-04-09T22:45:11.890Z,7.72
2023-04-09T22:47:39.939Z,8.10
2023-04-09T22:50:09.490Z,8.25
2023-04-09T22:52:38.767Z,8.63
2023-04-09T22:55:09.914Z,8.27
2023-04-09T22:57:38.449Z,8.38
2023-04-09T23:00:08.492Z,8.20
2023-04-09T23:02:36.955Z,8.55
2023-04-09T23:05:05.783Z,8.48
2023-04-09T23:07:33.882Z,8.40
2023-04-09T23:10:03.247Z,8.07
2023-04-09T23:12:31.127Z,8.30
2023-04-09T23:14:58.982Z,7.60
2023-04-09T23:17:27.788Z,7.88
2023-04-09T23:19:55.651Z,7.60
2023-04-09T23:22:24.531Z,7.90
2023-04-09T23:24:52.368Z,7.90
2023-04-09T23:27:28.118Z,7.88
2023-04-09T23:32:24.210Z,8.13
2023-04-09T23:34:52.495Z,8.88
2023-04-09T23:37:21.583Z,8.07
2023-04-09T23:39:49.526Z,7.65
2023-04-09T23:42:17.296Z,8.23
2023-04-09T23:44:46.685Z,7.97
2023-04-09T23:47:14.681Z,7.97
2023-04-09T23:49:43.407Z,7.65
2023-04-09T23:52:11.268Z,7.68
2023-04-09T23:54:39.120Z,8.38
2023-04-09T23:57:07.122Z,8.80
2023-04-09T23:59:36.023Z,8.60
